Humberside, United Kingdom

12:54 AM BST on October 25, 2014 (GMT +0100)
Scampton | Change Station
CLOSE
Current Station
Airport
Location: Humberside,
Elevation: 200 ft
Nearby Weather Stations

Elev 200 ft 53.31 °N, 0.55 °W | Updated 1 hour ago

Clear
Clear
46 °F
Feels Like 42 °F
N
9
Wind Variable Wind from SW

Today
High -- | Low -- °F
--% Chance of Precip.
Yesterday
High -- | Low -- °F
Precip. -- in
7:47 AM 5:44 PM
New Moon, 1% visible
Pressure 29.92 in
Visibility 6.2 miles
Clouds
Windchill 42 °F
Dew Point 45 °F
Humidity 93%
Rainfall 0.00 in
Snow Depth Not available.
UV Not available.
Pollen Not available.
Air Quality Not available.
Flu Activity Not available.
METAR EGXP 242250Z AUTO 22008KT 9999 // NCD 08/07 Q1013

More Conditions Fewer Conditions

Pressure 29.92 in
Visibility 6.2 miles
Clouds
Windchill 42 °F
Dew Point 45 °F
Humidity 93%
Rainfall 0.00 in
Snow Depth Not available.
UV Not available.
Pollen Not available.
Air Quality Not available.
Flu Activity Not available.
METAR EGXP 242250Z AUTO 22008KT 9999 // NCD 08/07 Q1013

More Conditions Fewer Conditions

10-Day Weather Forecast

Almanac

Astronomy

Oct. 25, 2014 Rise Set
Actual Time 7:47 AM BST 5:44 PM BST
Civil Twilight 7:11 AM BST 6:20 PM BST
Nautical Twilight 6:30 AM BST 7:01 PM BST
Astronomical Twilight 5:50 AM BST 7:41 PM BST
Moon 9:20 AM BST (10/25) 6:45 PM BST (10/25)
Length of Visible Light 11h 09m
Length of Day
9h 57m
Tomorrow will be 3m 59s shorter.
New Moon, 1% of the Moon is Illuminated
Oct 24
New Moon
Oct 30
First Quarter
Nov 6
Full
Nov 14
Last Quarter
Nov 22
New

Yesterday's Extremes

Country Highs Country Lows

Community

WunderPhotos

Upload Photos

1,764,713 photos uploaded!

Nearby

Snow Depth

Not available.

Earthquake Activity

City Distance Mag. Time & Date
No recent earthquake activity has been reported nearby.
Minimum magnitude displayed is 2.5.

Coastal Water Temperatures

Place Temperature
No Stations Reporting

Nearby Weather Stations